sensor_id;sensor_type;location;lat;lon;timestamp;P1;durP1;ratioP1;P2;durP2;ratioP2
39044;SDS011;52192;52.002;5.956;2023-04-06T00:01:02;1.73;;;1.10;;
39044;SDS011;52192;52.002;5.956;2023-04-06T00:03:27;2.03;;;1.55;;
39044;SDS011;52192;52.002;5.956;2023-04-06T00:05:53;2.65;;;1.58;;
39044;SDS011;52192;52.002;5.956;2023-04-06T00:08:19;3.47;;;2.13;;
39044;SDS011;52192;52.002;5.956;2023-04-06T00:10:46;2.85;;;1.77;;
39044;SDS011;52192;52.002;5.956;2023-04-06T00:13:12;1.77;;;1.50;;
39044;SDS011;52192;52.002;5.956;2023-04-06T00:15:37;4.00;;;1.77;;
39044;SDS011;52192;52.002;5.956;2023-04-06T00:18:03;4.28;;;1.92;;
39044;SDS011;52192;52.002;5.956;2023-04-06T00:20:29;3.05;;;1.70;;
39044;SDS011;52192;52.002;5.956;2023-04-06T00:22:55;1.42;;;1.15;;
39044;SDS011;52192;52.002;5.956;2023-04-06T00:25:21;2.25;;;1.70;;
39044;SDS011;52192;52.002;5.956;2023-04-06T00:27:47;2.90;;;1.52;;
39044;SDS011;52192;52.002;5.956;2023-04-06T00:30:13;4.07;;;2.00;;
39044;SDS011;52192;52.002;5.956;2023-04-06T00:32:38;3.50;;;1.58;;
39044;SDS011;52192;52.002;5.956;2023-04-06T00:35:04;3.72;;;1.83;;
39044;SDS011;52192;52.002;5.956;2023-04-06T00:37:31;3.92;;;2.13;;
39044;SDS011;52192;52.002;5.956;2023-04-06T00:39:57;2.92;;;1.83;;
39044;SDS011;52192;52.002;5.956;2023-04-06T00:42:22;3.05;;;1.58;;
39044;SDS011;52192;52.002;5.956;2023-04-06T00:44:55;4.60;;;1.75;;
39044;SDS011;52192;52.002;5.956;2023-04-06T00:47:22;2.65;;;1.90;;
39044;SDS011;52192;52.002;5.956;2023-04-06T00:49:50;2.00;;;1.58;;
39044;SDS011;52192;52.002;5.956;2023-04-06T00:52:16;3.00;;;1.73;;
39044;SDS011;52192;52.002;5.956;2023-04-06T00:54:42;4.53;;;1.98;;
39044;SDS011;52192;52.002;5.956;2023-04-06T00:57:08;2.83;;;1.73;;
39044;SDS011;52192;52.002;5.956;2023-04-06T00:59:34;3.78;;;2.67;;
39044;SDS011;52192;52.002;5.956;2023-04-06T01:02:00;4.22;;;2.30;;
39044;SDS011;52192;52.002;5.956;2023-04-06T01:04:26;3.28;;;2.10;;
39044;SDS011;52192;52.002;5.956;2023-04-06T01:06:52;2.78;;;1.70;;
39044;SDS011;52192;52.002;5.956;2023-04-06T01:09:18;2.70;;;1.80;;
39044;SDS011;52192;52.002;5.956;2023-04-06T01:11:44;3.40;;;2.10;;
39044;SDS011;52192;52.002;5.956;2023-04-06T01:14:09;2.88;;;1.75;;
39044;SDS011;52192;52.002;5.956;2023-04-06T01:16:35;4.53;;;2.15;;
39044;SDS011;52192;52.002;5.956;2023-04-06T01:19:07;3.63;;;1.65;;
39044;SDS011;52192;52.002;5.956;2023-04-06T01:21:34;2.55;;;1.75;;
39044;SDS011;52192;52.002;5.956;2023-04-06T01:24:00;3.13;;;1.98;;
39044;SDS011;52192;52.002;5.956;2023-04-06T01:26:26;1.75;;;1.45;;
39044;SDS011;52192;52.002;5.956;2023-04-06T01:28:54;3.25;;;2.40;;
39044;SDS011;52192;52.002;5.956;2023-04-06T01:31:20;4.03;;;2.88;;
39044;SDS011;52192;52.002;5.956;2023-04-06T01:33:46;2.55;;;2.03;;
39044;SDS011;52192;52.002;5.956;2023-04-06T01:36:12;2.25;;;1.65;;
39044;SDS011;52192;52.002;5.956;2023-04-06T01:38:37;3.55;;;2.33;;
39044;SDS011;52192;52.002;5.956;2023-04-06T01:41:03;6.00;;;3.20;;
39044;SDS011;52192;52.002;5.956;2023-04-06T01:43:29;4.07;;;1.52;;
39044;SDS011;52192;52.002;5.956;2023-04-06T01:45:54;6.07;;;2.28;;
39044;SDS011;52192;52.002;5.956;2023-04-06T01:48:20;2.78;;;1.67;;
39044;SDS011;52192;52.002;5.956;2023-04-06T01:50:46;3.45;;;1.60;;
39044;SDS011;52192;52.002;5.956;2023-04-06T01:53:11;2.95;;;1.92;;
39044;SDS011;52192;52.002;5.956;2023-04-06T01:55:37;2.63;;;2.00;;
39044;SDS011;52192;52.002;5.956;2023-04-06T01:58:03;3.15;;;1.88;;
39044;SDS011;52192;52.002;5.956;2023-04-06T02:00:28;2.22;;;1.98;;
39044;SDS011;52192;52.002;5.956;2023-04-06T02:02:54;3.33;;;1.80;;
39044;SDS011;52192;52.002;5.956;2023-04-06T02:05:20;3.70;;;2.35;;
39044;SDS011;52192;52.002;5.956;2023-04-06T02:07:45;3.80;;;1.95;;
39044;SDS011;52192;52.002;5.956;2023-04-06T02:10:12;3.08;;;1.98;;
39044;SDS011;52192;52.002;5.956;2023-04-06T02:12:38;2.92;;;1.80;;
39044;SDS011;52192;52.002;5.956;2023-04-06T02:15:04;5.20;;;2.33;;
39044;SDS011;52192;52.002;5.956;2023-04-06T02:17:30;3.65;;;2.00;;
39044;SDS011;52192;52.002;5.956;2023-04-06T02:19:56;7.00;;;2.45;;
39044;SDS011;52192;52.002;5.956;2023-04-06T02:22:22;3.22;;;2.03;;
39044;SDS011;52192;52.002;5.956;2023-04-06T02:24:47;4.28;;;2.30;;
39044;SDS011;52192;52.002;5.956;2023-04-06T02:27:14;5.07;;;2.72;;
39044;SDS011;52192;52.002;5.956;2023-04-06T02:29:40;4.18;;;2.53;;
39044;SDS011;52192;52.002;5.956;2023-04-06T02:32:05;2.90;;;2.00;;
39044;SDS011;52192;52.002;5.956;2023-04-06T02:34:31;2.63;;;1.75;;
39044;SDS011;52192;52.002;5.956;2023-04-06T02:36:57;5.90;;;2.22;;
39044;SDS011;52192;52.002;5.956;2023-04-06T02:39:23;2.13;;;1.92;;
39044;SDS011;52192;52.002;5.956;2023-04-06T02:41:49;3.53;;;2.25;;
39044;SDS011;52192;52.002;5.956;2023-04-06T02:44:14;4.65;;;2.67;;
39044;SDS011;52192;52.002;5.956;2023-04-06T02:46:40;2.78;;;2.03;;
39044;SDS011;52192;52.002;5.956;2023-04-06T02:49:06;3.50;;;1.75;;
39044;SDS011;52192;52.002;5.956;2023-04-06T02:51:32;2.05;;;1.77;;
39044;SDS011;52192;52.002;5.956;2023-04-06T02:53:58;2.95;;;2.30;;
39044;SDS011;52192;52.002;5.956;2023-04-06T02:56:24;6.03;;;2.53;;
39044;SDS011;52192;52.002;5.956;2023-04-06T02:58:50;4.78;;;2.70;;
39044;SDS011;52192;52.002;5.956;2023-04-06T03:01:15;2.88;;;2.22;;
39044;SDS011;52192;52.002;5.956;2023-04-06T03:03:41;5.13;;;2.90;;
39044;SDS011;52192;52.002;5.956;2023-04-06T03:06:07;3.20;;;1.45;;
39044;SDS011;52192;52.002;5.956;2023-04-06T03:08:33;5.93;;;2.63;;
39044;SDS011;52192;52.002;5.956;2023-04-06T03:10:58;5.00;;;2.13;;
39044;SDS011;52192;52.002;5.956;2023-04-06T03:13:24;5.97;;;2.55;;
39044;SDS011;52192;52.002;5.956;2023-04-06T03:15:50;3.55;;;2.22;;
39044;SDS011;52192;52.002;5.956;2023-04-06T03:18:17;4.53;;;2.15;;
39044;SDS011;52192;52.002;5.956;2023-04-06T03:20:46;3.22;;;2.35;;
39044;SDS011;52192;52.002;5.956;2023-04-06T03:23:12;2.72;;;1.90;;
39044;SDS011;52192;52.002;5.956;2023-04-06T03:25:38;3.10;;;2.45;;
39044;SDS011;52192;52.002;5.956;2023-04-06T03:28:04;4.90;;;2.25;;
39044;SDS011;52192;52.002;5.956;2023-04-06T03:30:30;3.13;;;1.67;;
39044;SDS011;52192;52.002;5.956;2023-04-06T03:32:56;5.07;;;2.90;;
39044;SDS011;52192;52.002;5.956;2023-04-06T03:35:21;2.25;;;1.85;;
39044;SDS011;52192;52.002;5.956;2023-04-06T03:37:47;4.18;;;2.95;;
39044;SDS011;52192;52.002;5.956;2023-04-06T03:40:16;5.50;;;2.40;;
39044;SDS011;52192;52.002;5.956;2023-04-06T03:42:42;3.80;;;2.30;;
39044;SDS011;52192;52.002;5.956;2023-04-06T03:45:08;4.93;;;2.67;;
39044;SDS011;52192;52.002;5.956;2023-04-06T03:47:34;3.08;;;2.17;;
39044;SDS011;52192;52.002;5.956;2023-04-06T03:50:00;4.93;;;2.65;;
39044;SDS011;52192;52.002;5.956;2023-04-06T03:52:26;6.15;;;2.50;;
39044;SDS011;52192;52.002;5.956;2023-04-06T03:54:52;3.25;;;2.30;;
39044;SDS011;52192;52.002;5.956;2023-04-06T03:57:17;4.47;;;2.30;;
39044;SDS011;52192;52.002;5.956;2023-04-06T03:59:43;4.32;;;2.63;;
39044;SDS011;52192;52.002;5.956;2023-04-06T04:02:09;5.15;;;2.22;;
39044;SDS011;52192;52.002;5.956;2023-04-06T04:04:34;2.88;;;2.10;;
39044;SDS011;52192;52.002;5.956;2023-04-06T04:07:00;4.50;;;2.42;;
39044;SDS011;52192;52.002;5.956;2023-04-06T04:09:26;5.50;;;2.13;;
39044;SDS011;52192;52.002;5.956;2023-04-06T04:11:52;5.18;;;2.47;;
39044;SDS011;52192;52.002;5.956;2023-04-06T04:14:17;3.30;;;2.47;;
39044;SDS011;52192;52.002;5.956;2023-04-06T04:16:43;3.58;;;2.22;;
39044;SDS011;52192;52.002;5.956;2023-04-06T04:19:08;4.32;;;2.75;;
39044;SDS011;52192;52.002;5.956;2023-04-06T04:21:41;3.25;;;2.30;;
39044;SDS011;52192;52.002;5.956;2023-04-06T04:24:08;5.47;;;3.10;;
39044;SDS011;52192;52.002;5.956;2023-04-06T04:26:34;3.00;;;2.63;;
39044;SDS011;52192;52.002;5.956;2023-04-06T04:29:00;6.30;;;3.55;;
39044;SDS011;52192;52.002;5.956;2023-04-06T04:31:26;4.03;;;2.83;;
39044;SDS011;52192;52.002;5.956;2023-04-06T04:33:51;5.05;;;3.50;;
39044;SDS011;52192;52.002;5.956;2023-04-06T04:36:17;5.28;;;2.95;;
39044;SDS011;52192;52.002;5.956;2023-04-06T04:38:43;6.90;;;3.10;;
39044;SDS011;52192;52.002;5.956;2023-04-06T04:41:08;2.72;;;1.92;;
39044;SDS011;52192;52.002;5.956;2023-04-06T04:43:34;4.07;;;2.50;;
39044;SDS011;52192;52.002;5.956;2023-04-06T04:46:00;4.43;;;2.38;;
39044;SDS011;52192;52.002;5.956;2023-04-06T04:48:25;6.38;;;3.10;;
39044;SDS011;52192;52.002;5.956;2023-04-06T04:50:51;4.15;;;2.72;;
39044;SDS011;52192;52.002;5.956;2023-04-06T04:53:17;7.03;;;2.70;;
39044;SDS011;52192;52.002;5.956;2023-04-06T04:55:43;3.53;;;2.95;;
39044;SDS011;52192;52.002;5.956;2023-04-06T04:58:08;4.22;;;2.33;;
39044;SDS011;52192;52.002;5.956;2023-04-06T05:00:36;5.82;;;2.63;;
39044;SDS011;52192;52.002;5.956;2023-04-06T05:03:02;5.35;;;2.45;;
39044;SDS011;52192;52.002;5.956;2023-04-06T05:05:29;4.25;;;2.33;;
39044;SDS011;52192;52.002;5.956;2023-04-06T05:07:55;3.78;;;2.72;;
39044;SDS011;52192;52.002;5.956;2023-04-06T05:10:21;4.40;;;2.67;;
39044;SDS011;52192;52.002;5.956;2023-04-06T05:12:47;3.45;;;2.17;;
39044;SDS011;52192;52.002;5.956;2023-04-06T05:15:13;5.15;;;2.78;;
39044;SDS011;52192;52.002;5.956;2023-04-06T05:17:38;4.20;;;2.63;;
39044;SDS011;52192;52.002;5.956;2023-04-06T05:20:04;7.95;;;2.80;;
39044;SDS011;52192;52.002;5.956;2023-04-06T05:22:31;5.25;;;3.00;;
39044;SDS011;52192;52.002;5.956;2023-04-06T05:24:56;6.68;;;3.60;;
39044;SDS011;52192;52.002;5.956;2023-04-06T05:27:22;4.35;;;3.05;;
39044;SDS011;52192;52.002;5.956;2023-04-06T05:29:48;4.57;;;2.50;;
39044;SDS011;52192;52.002;5.956;2023-04-06T05:32:14;5.05;;;3.15;;
39044;SDS011;52192;52.002;5.956;2023-04-06T05:34:40;4.00;;;2.97;;
39044;SDS011;52192;52.002;5.956;2023-04-06T05:37:06;5.68;;;3.45;;
39044;SDS011;52192;52.002;5.956;2023-04-06T05:39:31;7.18;;;3.58;;
39044;SDS011;52192;52.002;5.956;2023-04-06T05:41:57;6.50;;;3.60;;
39044;SDS011;52192;52.002;5.956;2023-04-06T05:44:23;6.05;;;3.30;;
39044;SDS011;52192;52.002;5.956;2023-04-06T05:46:49;4.82;;;3.33;;
39044;SDS011;52192;52.002;5.956;2023-04-06T05:49:14;4.07;;;2.80;;
39044;SDS011;52192;52.002;5.956;2023-04-06T05:51:40;6.78;;;3.22;;
39044;SDS011;52192;52.002;5.956;2023-04-06T05:54:06;5.28;;;3.22;;
39044;SDS011;52192;52.002;5.956;2023-04-06T05:56:31;7.03;;;3.28;;
39044;SDS011;52192;52.002;5.956;2023-04-06T05:58:57;5.45;;;3.10;;
39044;SDS011;52192;52.002;5.956;2023-04-06T06:01:23;7.28;;;3.28;;
39044;SDS011;52192;52.002;5.956;2023-04-06T06:03:48;7.38;;;3.47;;
39044;SDS011;52192;52.002;5.956;2023-04-06T06:06:14;6.55;;;3.22;;
39044;SDS011;52192;52.002;5.956;2023-04-06T06:08:40;6.30;;;2.80;;
39044;SDS011;52192;52.002;5.956;2023-04-06T06:11:06;5.75;;;3.05;;
39044;SDS011;52192;52.002;5.956;2023-04-06T06:13:32;4.47;;;2.92;;
39044;SDS011;52192;52.002;5.956;2023-04-06T06:15:57;4.22;;;2.92;;
39044;SDS011;52192;52.002;5.956;2023-04-06T06:18:23;5.40;;;3.15;;
39044;SDS011;52192;52.002;5.956;2023-04-06T06:20:49;6.15;;;3.65;;
39044;SDS011;52192;52.002;5.956;2023-04-06T06:23:15;6.65;;;3.95;;
39044;SDS011;52192;52.002;5.956;2023-04-06T06:25:40;4.80;;;2.97;;
39044;SDS011;52192;52.002;5.956;2023-04-06T06:28:06;4.72;;;2.85;;
39044;SDS011;52192;52.002;5.956;2023-04-06T06:30:32;7.70;;;3.30;;
39044;SDS011;52192;52.002;5.956;2023-04-06T06:32:57;5.50;;;3.03;;
39044;SDS011;52192;52.002;5.956;2023-04-06T06:35:23;6.47;;;3.35;;
39044;SDS011;52192;52.002;5.956;2023-04-06T06:37:49;4.95;;;2.78;;
39044;SDS011;52192;52.002;5.956;2023-04-06T06:40:14;5.93;;;2.88;;
39044;SDS011;52192;52.002;5.956;2023-04-06T06:42:42;4.68;;;3.00;;
39044;SDS011;52192;52.002;5.956;2023-04-06T06:45:08;5.07;;;3.08;;
39044;SDS011;52192;52.002;5.956;2023-04-06T06:47:35;12.73;;;4.15;;
39044;SDS011;52192;52.002;5.956;2023-04-06T06:50:00;8.68;;;3.90;;
39044;SDS011;52192;52.002;5.956;2023-04-06T06:52:28;4.13;;;2.30;;
39044;SDS011;52192;52.002;5.956;2023-04-06T06:54:53;3.30;;;2.90;;
39044;SDS011;52192;52.002;5.956;2023-04-06T06:57:21;5.65;;;3.42;;
39044;SDS011;52192;52.002;5.956;2023-04-06T06:59:46;9.02;;;3.13;;
39044;SDS011;52192;52.002;5.956;2023-04-06T07:02:12;4.85;;;2.67;;
39044;SDS011;52192;52.002;5.956;2023-04-06T07:04:38;4.90;;;3.00;;
39044;SDS011;52192;52.002;5.956;2023-04-06T07:07:04;6.70;;;3.63;;
39044;SDS011;52192;52.002;5.956;2023-04-06T07:09:29;3.90;;;2.53;;
39044;SDS011;52192;52.002;5.956;2023-04-06T07:11:55;5.60;;;2.97;;
39044;SDS011;52192;52.002;5.956;2023-04-06T07:14:21;7.35;;;3.00;;
39044;SDS011;52192;52.002;5.956;2023-04-06T07:16:47;5.50;;;3.60;;
39044;SDS011;52192;52.002;5.956;2023-04-06T07:19:15;5.13;;;3.25;;
39044;SDS011;52192;52.002;5.956;2023-04-06T07:21:40;4.88;;;3.13;;
39044;SDS011;52192;52.002;5.956;2023-04-06T07:24:06;5.50;;;3.53;;
39044;SDS011;52192;52.002;5.956;2023-04-06T07:26:32;5.85;;;2.75;;
39044;SDS011;52192;52.002;5.956;2023-04-06T07:28:58;5.18;;;2.95;;
39044;SDS011;52192;52.002;5.956;2023-04-06T07:31:23;8.07;;;2.88;;
39044;SDS011;52192;52.002;5.956;2023-04-06T07:33:49;2.90;;;2.17;;
39044;SDS011;52192;52.002;5.956;2023-04-06T07:36:15;5.32;;;2.78;;
39044;SDS011;52192;52.002;5.956;2023-04-06T07:38:40;5.68;;;3.40;;
39044;SDS011;52192;52.002;5.956;2023-04-06T07:41:06;4.85;;;2.83;;
39044;SDS011;52192;52.002;5.956;2023-04-06T07:43:32;3.78;;;2.80;;
39044;SDS011;52192;52.002;5.956;2023-04-06T07:45:57;7.70;;;3.17;;
39044;SDS011;52192;52.002;5.956;2023-04-06T07:48:25;5.57;;;3.47;;
39044;SDS011;52192;52.002;5.956;2023-04-06T07:50:50;5.53;;;3.50;;
39044;SDS011;52192;52.002;5.956;2023-04-06T07:53:16;5.68;;;3.17;;
39044;SDS011;52192;52.002;5.956;2023-04-06T07:55:42;7.15;;;3.17;;
39044;SDS011;52192;52.002;5.956;2023-04-06T07:58:07;5.50;;;2.58;;
39044;SDS011;52192;52.002;5.956;2023-04-06T08:00:33;5.43;;;2.85;;
39044;SDS011;52192;52.002;5.956;2023-04-06T08:02:59;7.18;;;3.50;;
39044;SDS011;52192;52.002;5.956;2023-04-06T08:05:25;5.80;;;3.35;;
39044;SDS011;52192;52.002;5.956;2023-04-06T08:07:50;9.30;;;4.65;;
39044;SDS011;52192;52.002;5.956;2023-04-06T08:10:16;4.30;;;2.50;;
39044;SDS011;52192;52.002;5.956;2023-04-06T08:12:42;4.90;;;2.55;;
39044;SDS011;52192;52.002;5.956;2023-04-06T08:15:08;8.98;;;4.20;;
39044;SDS011;52192;52.002;5.956;2023-04-06T08:17:33;4.20;;;2.67;;
39044;SDS011;52192;52.002;5.956;2023-04-06T08:20:00;5.65;;;3.28;;
39044;SDS011;52192;52.002;5.956;2023-04-06T08:22:26;5.18;;;2.35;;
39044;SDS011;52192;52.002;5.956;2023-04-06T08:24:51;5.93;;;2.65;;
39044;SDS011;52192;52.002;5.956;2023-04-06T08:27:17;6.28;;;2.65;;
39044;SDS011;52192;52.002;5.956;2023-04-06T08:29:43;6.38;;;3.75;;
39044;SDS011;52192;52.002;5.956;2023-04-06T08:32:08;4.85;;;3.00;;
39044;SDS011;52192;52.002;5.956;2023-04-06T08:34:35;5.50;;;2.50;;
39044;SDS011;52192;52.002;5.956;2023-04-06T08:37:01;6.43;;;3.58;;
39044;SDS011;52192;52.002;5.956;2023-04-06T08:39:27;6.05;;;3.45;;
39044;SDS011;52192;52.002;5.956;2023-04-06T08:41:55;8.55;;;3.67;;
39044;SDS011;52192;52.002;5.956;2023-04-06T08:44:24;5.15;;;2.45;;
39044;SDS011;52192;52.002;5.956;2023-04-06T08:46:51;4.55;;;2.88;;
39044;SDS011;52192;52.002;5.956;2023-04-06T08:49:17;8.35;;;2.70;;
39044;SDS011;52192;52.002;5.956;2023-04-06T08:51:44;8.73;;;3.75;;
39044;SDS011;52192;52.002;5.956;2023-04-06T08:54:10;6.00;;;3.75;;
39044;SDS011;52192;52.002;5.956;2023-04-06T08:56:39;6.93;;;3.38;;
39044;SDS011;52192;52.002;5.956;2023-04-06T08:59:05;5.75;;;3.20;;
39044;SDS011;52192;52.002;5.956;2023-04-06T09:01:33;4.00;;;2.38;;
39044;SDS011;52192;52.002;5.956;2023-04-06T09:04:02;4.15;;;3.20;;
39044;SDS011;52192;52.002;5.956;2023-04-06T09:06:34;5.80;;;3.55;;
39044;SDS011;52192;52.002;5.956;2023-04-06T09:08:59;4.57;;;2.78;;
39044;SDS011;52192;52.002;5.956;2023-04-06T09:11:25;10.23;;;3.75;;
39044;SDS011;52192;52.002;5.956;2023-04-06T09:13:52;5.05;;;2.58;;
39044;SDS011;52192;52.002;5.956;2023-04-06T09:16:19;8.80;;;4.13;;
39044;SDS011;52192;52.002;5.956;2023-04-06T09:18:45;5.45;;;2.60;;
39044;SDS011;52192;52.002;5.956;2023-04-06T09:21:12;7.07;;;4.15;;
39044;SDS011;52192;52.002;5.956;2023-04-06T09:23:41;6.30;;;3.25;;
39044;SDS011;52192;52.002;5.956;2023-04-06T09:26:15;5.82;;;3.25;;
39044;SDS011;52192;52.002;5.956;2023-04-06T09:28:51;7.90;;;3.58;;
39044;SDS011;52192;52.002;5.956;2023-04-06T09:31:22;6.82;;;4.22;;
39044;SDS011;52192;52.002;5.956;2023-04-06T09:33:49;6.68;;;3.55;;
39044;SDS011;52192;52.002;5.956;2023-04-06T09:36:15;11.85;;;4.78;;
39044;SDS011;52192;52.002;5.956;2023-04-06T09:41:24;8.32;;;4.32;;
39044;SDS011;52192;52.002;5.956;2023-04-06T09:43:52;6.13;;;3.50;;
39044;SDS011;52192;52.002;5.956;2023-04-06T09:46:26;4.50;;;3.00;;
39044;SDS011;52192;52.002;5.956;2023-04-06T09:48:55;7.45;;;3.97;;
39044;SDS011;52192;52.002;5.956;2023-04-06T09:51:22;11.70;;;3.67;;
39044;SDS011;52192;52.002;5.956;2023-04-06T09:53:52;13.73;;;3.60;;
39044;SDS011;52192;52.002;5.956;2023-04-06T09:56:20;5.35;;;3.05;;
39044;SDS011;52192;52.002;5.956;2023-04-06T09:58:50;6.88;;;3.20;;
39044;SDS011;52192;52.002;5.956;2023-04-06T10:01:21;6.65;;;3.47;;
39044;SDS011;52192;52.002;5.956;2023-04-06T10:06:27;6.45;;;3.50;;
39044;SDS011;52192;52.002;5.956;2023-04-06T10:08:57;10.70;;;4.40;;
39044;SDS011;52192;52.002;5.956;2023-04-06T10:11:24;8.82;;;3.85;;
39044;SDS011;52192;52.002;5.956;2023-04-06T10:13:50;8.95;;;3.78;;
39044;SDS011;52192;52.002;5.956;2023-04-06T10:16:16;9.07;;;3.25;;
39044;SDS011;52192;52.002;5.956;2023-04-06T10:18:44;7.50;;;3.53;;
39044;SDS011;52192;52.002;5.956;2023-04-06T10:21:16;6.93;;;3.13;;
39044;SDS011;52192;52.002;5.956;2023-04-06T10:23:49;7.85;;;4.38;;
39044;SDS011;52192;52.002;5.956;2023-04-06T10:26:19;9.85;;;4.38;;
39044;SDS011;52192;52.002;5.956;2023-04-06T10:28:47;8.80;;;4.43;;
39044;SDS011;52192;52.002;5.956;2023-04-06T10:31:14;12.75;;;5.80;;
39044;SDS011;52192;52.002;5.956;2023-04-06T10:33:40;10.70;;;4.85;;
39044;SDS011;52192;52.002;5.956;2023-04-06T10:36:21;9.98;;;5.47;;
39044;SDS011;52192;52.002;5.956;2023-04-06T10:38:53;10.23;;;5.18;;
39044;SDS011;52192;52.002;5.956;2023-04-06T10:43:54;9.23;;;4.57;;
39044;SDS011;52192;52.002;5.956;2023-04-06T10:46:28;7.55;;;3.63;;
39044;SDS011;52192;52.002;5.956;2023-04-06T10:48:55;8.38;;;3.58;;
39044;SDS011;52192;52.002;5.956;2023-04-06T10:51:24;6.97;;;4.00;;
39044;SDS011;52192;52.002;5.956;2023-04-06T10:53:53;10.10;;;3.80;;
39044;SDS011;52192;52.002;5.956;2023-04-06T10:56:23;10.98;;;4.22;;
39044;SDS011;52192;52.002;5.956;2023-04-06T10:58:52;10.38;;;5.13;;
39044;SDS011;52192;52.002;5.956;2023-04-06T11:01:21;8.02;;;4.03;;
39044;SDS011;52192;52.002;5.956;2023-04-06T11:03:49;7.45;;;4.65;;
39044;SDS011;52192;52.002;5.956;2023-04-06T11:06:22;8.38;;;4.75;;
39044;SDS011;52192;52.002;5.956;2023-04-06T11:08:49;6.50;;;4.03;;
39044;SDS011;52192;52.002;5.956;2023-04-06T11:11:16;5.40;;;3.08;;
39044;SDS011;52192;52.002;5.956;2023-04-06T11:13:48;7.53;;;3.90;;
39044;SDS011;52192;52.002;5.956;2023-04-06T11:16:19;7.57;;;4.20;;
39044;SDS011;52192;52.002;5.956;2023-04-06T11:18:56;7.95;;;3.58;;
39044;SDS011;52192;52.002;5.956;2023-04-06T11:22:05;6.45;;;3.45;;
39044;SDS011;52192;52.002;5.956;2023-04-06T11:24:18;6.07;;;3.38;;
39044;SDS011;52192;52.002;5.956;2023-04-06T11:29:14;6.32;;;3.10;;
39044;SDS011;52192;52.002;5.956;2023-04-06T11:34:10;6.40;;;3.22;;
39044;SDS011;52192;52.002;5.956;2023-04-06T11:36:39;5.90;;;2.97;;
39044;SDS011;52192;52.002;5.956;2023-04-06T11:39:06;7.20;;;4.25;;
39044;SDS011;52192;52.002;5.956;2023-04-06T11:41:32;5.22;;;3.65;;
39044;SDS011;52192;52.002;5.956;2023-04-06T11:44:00;9.27;;;3.92;;
39044;SDS011;52192;52.002;5.956;2023-04-06T11:46:27;16.27;;;4.05;;
39044;SDS011;52192;52.002;5.956;2023-04-06T11:48:53;7.63;;;3.10;;
39044;SDS011;52192;52.002;5.956;2023-04-06T11:51:26;6.97;;;4.03;;
39044;SDS011;52192;52.002;5.956;2023-04-06T11:53:52;9.10;;;3.92;;
39044;SDS011;52192;52.002;5.956;2023-04-06T11:56:23;6.05;;;2.70;;
39044;SDS011;52192;52.002;5.956;2023-04-06T11:58:57;6.97;;;3.10;;
39044;SDS011;52192;52.002;5.956;2023-04-06T12:01:25;5.90;;;3.03;;
39044;SDS011;52192;52.002;5.956;2023-04-06T12:03:51;5.18;;;3.25;;
39044;SDS011;52192;52.002;5.956;2023-04-06T12:06:18;4.30;;;2.88;;
39044;SDS011;52192;52.002;5.956;2023-04-06T12:08:44;6.25;;;2.67;;
39044;SDS011;52192;52.002;5.956;2023-04-06T12:11:10;6.47;;;3.30;;
39044;SDS011;52192;52.002;5.956;2023-04-06T12:13:36;4.72;;;2.65;;
39044;SDS011;52192;52.002;5.956;2023-04-06T12:16:02;5.10;;;2.45;;
39044;SDS011;52192;52.002;5.956;2023-04-06T12:18:29;5.47;;;2.78;;
39044;SDS011;52192;52.002;5.956;2023-04-06T12:20:55;3.30;;;2.10;;
39044;SDS011;52192;52.002;5.956;2023-04-06T12:23:21;4.10;;;2.58;;
39044;SDS011;52192;52.002;5.956;2023-04-06T12:25:47;5.38;;;3.15;;
39044;SDS011;52192;52.002;5.956;2023-04-06T12:28:12;4.90;;;2.70;;
39044;SDS011;52192;52.002;5.956;2023-04-06T12:30:38;4.43;;;2.50;;
39044;SDS011;52192;52.002;5.956;2023-04-06T12:33:06;8.70;;;3.95;;
39044;SDS011;52192;52.002;5.956;2023-04-06T12:35:34;4.57;;;2.53;;
39044;SDS011;52192;52.002;5.956;2023-04-06T12:38:01;4.75;;;2.28;;
39044;SDS011;52192;52.002;5.956;2023-04-06T12:40:27;3.92;;;2.08;;
39044;SDS011;52192;52.002;5.956;2023-04-06T12:42:53;3.38;;;2.00;;
39044;SDS011;52192;52.002;5.956;2023-04-06T12:45:19;3.42;;;2.90;;
39044;SDS011;52192;52.002;5.956;2023-04-06T12:47:44;4.03;;;1.92;;
39044;SDS011;52192;52.002;5.956;2023-04-06T12:50:10;3.80;;;2.17;;
39044;SDS011;52192;52.002;5.956;2023-04-06T12:52:36;5.95;;;2.80;;
39044;SDS011;52192;52.002;5.956;2023-04-06T12:55:02;4.03;;;1.90;;
39044;SDS011;52192;52.002;5.956;2023-04-06T12:57:30;3.58;;;1.85;;
39044;SDS011;52192;52.002;5.956;2023-04-06T12:59:56;3.60;;;2.00;;
39044;SDS011;52192;52.002;5.956;2023-04-06T13:02:22;2.38;;;1.58;;
39044;SDS011;52192;52.002;5.956;2023-04-06T13:04:48;3.15;;;1.52;;
39044;SDS011;52192;52.002;5.956;2023-04-06T13:07:15;2.33;;;1.60;;
39044;SDS011;52192;52.002;5.956;2023-04-06T13:09:41;4.35;;;1.90;;
39044;SDS011;52192;52.002;5.956;2023-04-06T13:12:07;2.60;;;1.60;;
39044;SDS011;52192;52.002;5.956;2023-04-06T13:14:32;4.60;;;2.47;;
39044;SDS011;52192;52.002;5.956;2023-04-06T13:16:59;1.95;;;1.60;;
39044;SDS011;52192;52.002;5.956;2023-04-06T13:19:25;4.10;;;1.65;;
39044;SDS011;52192;52.002;5.956;2023-04-06T13:21:51;3.25;;;1.75;;
39044;SDS011;52192;52.002;5.956;2023-04-06T13:24:17;3.08;;;2.35;;
39044;SDS011;52192;52.002;5.956;2023-04-06T13:26:44;3.67;;;1.98;;
39044;SDS011;52192;52.002;5.956;2023-04-06T13:29:10;4.93;;;2.00;;
39044;SDS011;52192;52.002;5.956;2023-04-06T13:31:36;2.55;;;1.65;;
39044;SDS011;52192;52.002;5.956;2023-04-06T13:34:01;3.67;;;1.60;;
39044;SDS011;52192;52.002;5.956;2023-04-06T13:36:27;2.65;;;1.92;;
39044;SDS011;52192;52.002;5.956;2023-04-06T13:38:53;3.55;;;1.80;;
39044;SDS011;52192;52.002;5.956;2023-04-06T13:41:20;2.70;;;1.75;;
39044;SDS011;52192;52.002;5.956;2023-04-06T13:43:47;3.75;;;1.85;;
39044;SDS011;52192;52.002;5.956;2023-04-06T13:46:13;2.20;;;1.65;;
39044;SDS011;52192;52.002;5.956;2023-04-06T13:48:38;4.95;;;2.15;;
39044;SDS011;52192;52.002;5.956;2023-04-06T13:51:07;2.63;;;2.08;;
39044;SDS011;52192;52.002;5.956;2023-04-06T13:56:02;4.85;;;2.13;;
39044;SDS011;52192;52.002;5.956;2023-04-06T13:58:28;2.58;;;2.28;;
39044;SDS011;52192;52.002;5.956;2023-04-06T14:00:54;3.55;;;1.95;;
39044;SDS011;52192;52.002;5.956;2023-04-06T14:03:20;5.15;;;2.40;;
39044;SDS011;52192;52.002;5.956;2023-04-06T14:05:47;3.42;;;1.70;;
39044;SDS011;52192;52.002;5.956;2023-04-06T14:08:13;3.67;;;2.15;;
39044;SDS011;52192;52.002;5.956;2023-04-06T14:10:39;3.25;;;2.20;;
39044;SDS011;52192;52.002;5.956;2023-04-06T14:13:05;2.70;;;1.55;;
39044;SDS011;52192;52.002;5.956;2023-04-06T14:15:31;3.70;;;1.95;;
39044;SDS011;52192;52.002;5.956;2023-04-06T14:17:57;2.35;;;1.88;;
39044;SDS011;52192;52.002;5.956;2023-04-06T14:20:23;3.55;;;1.80;;
39044;SDS011;52192;52.002;5.956;2023-04-06T14:22:48;4.68;;;2.60;;
39044;SDS011;52192;52.002;5.956;2023-04-06T14:25:16;2.50;;;1.83;;
39044;SDS011;52192;52.002;5.956;2023-04-06T14:27:42;3.55;;;2.20;;
39044;SDS011;52192;52.002;5.956;2023-04-06T14:30:08;2.90;;;1.73;;
39044;SDS011;52192;52.002;5.956;2023-04-06T14:32:34;3.67;;;2.15;;
39044;SDS011;52192;52.002;5.956;2023-04-06T14:35:01;3.55;;;1.80;;
39044;SDS011;52192;52.002;5.956;2023-04-06T14:37:26;4.25;;;2.30;;
39044;SDS011;52192;52.002;5.956;2023-04-06T14:39:52;2.97;;;2.15;;
39044;SDS011;52192;52.002;5.956;2023-04-06T14:42:18;3.28;;;2.13;;
39044;SDS011;52192;52.002;5.956;2023-04-06T14:44:43;3.22;;;1.90;;
39044;SDS011;52192;52.002;5.956;2023-04-06T14:47:10;5.53;;;2.58;;
39044;SDS011;52192;52.002;5.956;2023-04-06T14:49:36;4.35;;;2.55;;
39044;SDS011;52192;52.002;5.956;2023-04-06T14:52:02;3.58;;;2.10;;
39044;SDS011;52192;52.002;5.956;2023-04-06T14:54:28;2.80;;;1.88;;
39044;SDS011;52192;52.002;5.956;2023-04-06T14:56:54;4.10;;;2.25;;
39044;SDS011;52192;52.002;5.956;2023-04-06T14:59:20;3.47;;;2.05;;